Time;durP1;ratioP1;P1;durP2;ratioP2;P2;SDS_P1;SDS_P2;PMS_P1;PMS_P2;Temp;Humidity;BMP_temperature;BMP_pressure;BME280_temperature;BME280_humidity;BME280_pressure;Samples;Min_cycle;Max_cycle;Signal;HPM_P1;HPM_P2
2023/10/01 00:00:46;;;;;;;6.35;4.00;;;;;;;14.15;100.00;98544.13;1226176;75;2922498;-78
2023/10/01 00:03:19;;;;;;;7.70;4.50;;;;;;;14.05;100.00;98538.00;1212597;67;3904345;-75
2023/10/01 00:05:53;;;;;;;6.90;3.85;;;;;;;14.14;100.00;98537.13;1225969;75;2923562;-75
2023/10/01 00:08:25;;;;;;;5.90;3.40;;;;;;;14.07;100.00;98540.28;1205786;75;3981471;-79
2023/10/01 00:10:58;;;;;;;7.50;3.90;;;;;;;13.98;100.00;98538.38;1222385;75;2955010;-75
2023/10/01 00:13:31;;;;;;;7.35;3.95;;;;;;;13.91;100.00;98538.00;1220893;75;2958070;-76
2023/10/01 00:16:06;;;;;;;7.20;4.00;;;;;;;13.99;100.00;98534.38;1223045;75;2924406;-75
2023/10/01 00:18:39;;;;;;;7.50;4.20;;;;;;;14.02;100.00;98535.41;1224493;75;2912428;-74
2023/10/01 00:21:11;;;;;;;7.85;3.80;;;;;;;13.98;100.00;98532.88;1221614;75;3061209;-77
2023/10/01 00:23:44;;;;;;;7.60;4.00;;;;;;;13.93;100.00;98530.78;1219369;75;3050786;-78
2023/10/01 00:26:18;;;;;;;6.75;4.20;;;;;;;13.83;100.00;98532.16;1219732;75;3101245;-75
2023/10/01 00:28:52;;;;;;;6.25;4.10;;;;;;;13.89;100.00;98523.97;1224307;75;2928004;-78
2023/10/01 00:31:27;;;;;;;6.15;3.70;;;;;;;13.87;100.00;98532.69;1222742;75;3002990;-78
2023/10/01 00:34:01;;;;;;;6.90;4.00;;;;;;;13.77;100.00;98534.78;1207245;75;4044438;-78
2023/10/01 00:36:35;;;;;;;10.25;5.60;;;;;;;13.70;100.00;98523.41;1212649;75;3796611;-75
2023/10/01 00:39:08;;;;;;;10.70;6.45;;;;;;;13.46;100.00;98524.28;1225503;75;2962246;-73
2023/10/01 00:41:41;;;;;;;20.90;10.90;;;;;;;13.31;100.00;98520.75;1220678;67;3035454;-75
2023/10/01 00:44:15;;;;;;;13.90;8.10;;;;;;;13.57;100.00;98527.22;1224168;75;2976432;-74
2023/10/01 00:46:50;;;;;;;10.60;6.65;;;;;;;13.78;100.00;98527.28;1225350;75;2922779;-77
2023/10/01 00:49:23;;;;;;;10.00;5.95;;;;;;;13.62;100.00;98525.78;1223514;75;2948420;-75
2023/10/01 00:51:56;;;;;;;9.45;5.50;;;;;;;13.75;100.00;98520.75;1223749;75;2968107;-72
2023/10/01 00:54:29;;;;;;;8.00;5.10;;;;;;;13.79;100.00;98526.06;1223242;75;2931055;-75
2023/10/01 00:57:02;;;;;;;7.05;4.25;;;;;;;13.78;100.00;98528.06;1211761;75;3787870;-77
2023/10/01 00:59:35;;;;;;;6.80;4.00;;;;;;;13.72;100.00;98523.69;1220002;75;3074538;-78
2023/10/01 01:02:15;;;;;;;11.40;6.80;;;;;;;13.51;100.00;98539.34;1225020;75;2921693;-77
2023/10/01 01:05:05;;;;;;;9.40;6.05;;;;;;;13.71;100.00;98536.72;1224347;75;2922947;-76
2023/10/01 01:07:40;;;;;;;8.05;5.00;;;;;;;13.72;100.00;98534.72;1190384;75;5675593;-78
2023/10/01 01:10:16;;;;;;;7.55;4.40;;;;;;;13.58;100.00;98536.97;1223928;75;2932872;-78
2023/10/01 01:12:53;;;;;;;7.65;4.20;;;;;;;13.69;100.00;98535.66;1211256;75;3786041;-75
2023/10/01 01:15:27;;;;;;;7.90;3.80;;;;;;;13.69;100.00;98536.41;1224254;75;2959935;-76
2023/10/01 01:18:05;;;;;;;5.80;3.65;;;;;;;13.62;100.00;98531.31;1211564;75;3786646;-76
2023/10/01 01:20:43;;;;;;;7.25;4.55;;;;;;;13.56;100.00;98538.69;1212233;75;3781758;-75
2023/10/01 01:23:23;;;;;;;6.35;3.45;;;;;;;13.62;100.00;98540.31;1225059;75;2929290;-75
2023/10/01 01:25:56;;;;;;;6.90;4.20;;;;;;;13.64;100.00;98539.84;1223382;75;2939163;-75
2023/10/01 01:28:30;;;;;;;6.10;3.60;;;;;;;13.61;100.00;98549.03;1223208;75;2949187;-77
2023/10/01 01:31:04;;;;;;;5.85;3.90;;;;;;;13.56;100.00;98539.44;1225698;75;2926818;-80
2023/10/01 01:33:44;;;;;;;7.40;3.45;;;;;;;13.52;100.00;98544.38;1211443;75;3819103;-74
2023/10/01 01:36:19;;;;;;;7.30;4.30;;;;;;;13.30;100.00;98553.00;1224311;75;2916430;-76
2023/10/01 01:39:13;;;;;;;7.60;4.20;;;;;;;13.37;100.00;98540.84;1225392;75;2915199;-79
2023/10/01 01:41:48;;;;;;;6.00;3.60;;;;;;;13.40;100.00;98550.94;1222159;75;3005284;-74
2023/10/01 01:44:20;;;;;;;6.65;3.85;;;;;;;13.34;100.00;98550.81;1225215;75;2920404;-77
2023/10/01 01:47:00;;;;;;;7.75;4.85;;;;;;;13.38;100.00;98545.13;1223493;75;2950375;-75
2023/10/01 01:49:32;;;;;;;8.95;4.85;;;;;;;13.05;100.00;98542.50;1209071;75;3909667;-74
2023/10/01 01:52:05;;;;;;;7.55;4.75;;;;;;;13.30;100.00;98546.72;1208722;75;3836100;-75
2023/10/01 01:54:45;;;;;;;6.90;4.35;;;;;;;13.30;100.00;98533.75;1224866;75;2917906;-74
2023/10/01 01:57:18;;;;;;;8.90;5.40;;;;;;;12.97;100.00;98544.84;1225911;75;2916908;-75
2023/10/01 01:59:51;;;;;;;9.15;5.50;;;;;;;13.14;100.00;98545.94;1224983;75;2923080;-78
2023/10/01 02:02:23;;;;;;;8.65;4.90;;;;;;;13.19;100.00;98545.28;1221722;75;3060357;-75
2023/10/01 02:05:08;;;;;;;6.65;4.30;;;;;;;13.18;100.00;98540.22;1221463;75;2943053;-76
2023/10/01 02:07:41;;;;;;;6.60;3.70;;;;;;;13.17;100.00;98542.22;1220002;75;3035757;-78
2023/10/01 02:10:16;;;;;;;6.85;4.05;;;;;;;13.18;100.00;98542.97;1221309;75;3112799;-74
2023/10/01 02:12:50;;;;;;;6.85;3.90;;;;;;;13.18;100.00;98537.47;1223885;75;2916771;-77
2023/10/01 02:15:24;;;;;;;6.45;3.65;;;;;;;13.18;100.00;98548.47;1200805;75;4794166;-78
2023/10/01 02:17:58;;;;;;;6.80;3.90;;;;;;;13.12;100.00;98547.63;1222006;75;3009643;-76
2023/10/01 02:20:33;;;;;;;13.85;8.00;;;;;;;12.72;100.00;98552.38;1224664;75;2914144;-76
2023/10/01 02:23:12;;;;;;;12.90;7.25;;;;;;;12.98;100.00;98544.38;1221230;75;3100157;-75
2023/10/01 02:25:49;;;;;;;9.30;5.75;;;;;;;13.09;100.00;98545.84;1221434;75;3032309;-79
2023/10/01 02:28:22;;;;;;;9.50;5.70;;;;;;;12.86;100.00;98547.38;1217510;75;2985353;-76
2023/10/01 02:30:59;;;;;;;9.70;5.35;;;;;;;12.91;100.00;98549.47;1225412;75;2922887;-77
2023/10/01 02:33:55;;;;;;;8.55;4.90;;;;;;;12.86;100.00;98541.88;1223979;75;2922673;-78
2023/10/01 02:36:30;;;;;;;9.30;5.10;;;;;;;12.82;100.00;98544.03;1222315;75;2965807;-76
2023/10/01 02:39:11;;;;;;;7.30;4.60;;;;;;;12.85;100.00;98543.13;1223995;75;2920563;-77
2023/10/01 02:42:03;;;;;;;8.20;4.40;;;;;;;12.87;100.00;98546.91;1224052;75;2930750;-75
2023/10/01 02:44:38;;;;;;;9.05;5.05;;;;;;;12.75;100.00;98539.69;1225237;75;2918784;-76
2023/10/01 02:47:16;;;;;;;6.80;4.20;;;;;;;12.76;100.00;98533.69;1225205;75;2908500;-73
2023/10/01 02:49:52;;;;;;;6.75;3.75;;;;;;;12.76;100.00;98550.19;1225264;75;2916016;-75
2023/10/01 02:52:32;;;;;;;7.60;4.35;;;;;;;12.61;100.00;98545.88;1225886;75;2916600;-77
2023/10/01 02:55:16;;;;;;;8.65;4.60;;;;;;;12.61;100.00;98541.13;1219794;75;2995339;-76
2023/10/01 02:57:52;;;;;;;8.10;4.15;;;;;;;12.61;100.00;98538.38;1225283;75;2921182;-77
2023/10/01 03:00:30;;;;;;;9.75;4.50;;;;;;;12.66;100.00;98542.47;1224882;75;2921697;-79
2023/10/01 03:03:14;;;;;;;8.00;4.60;;;;;;;12.60;100.00;98541.59;1224531;75;2945674;-75
2023/10/01 03:05:47;;;;;;;8.65;4.80;;;;;;;12.42;100.00;98531.50;1208346;75;3978181;-76
2023/10/01 03:11:11;;;;;;;8.15;5.30;;;;;;;12.38;100.00;98539.88;1224772;75;2931508;-75
2023/10/01 03:13:48;;;;;;;10.50;5.80;;;;;;;12.47;100.00;98550.06;1221567;75;3073234;-78
2023/10/01 03:19:25;;;;;;;10.85;5.75;;;;;;;12.49;100.00;98553.13;1219913;75;3110946;-77
2023/10/01 03:24:47;;;;;;;8.00;4.75;;;;;;;12.49;100.00;98558.59;1217530;75;3103312;-78
2023/10/01 03:27:25;;;;;;;7.70;4.15;;;;;;;12.40;100.00;98555.91;1225657;75;2921212;-76
2023/10/01 03:30:18;;;;;;;9.50;5.10;;;;;;;12.20;100.00;98559.22;1225640;75;2900997;-74
2023/10/01 03:32:51;;;;;;;9.90;5.70;;;;;;;12.17;100.00;98555.41;1224944;75;2914207;-73
2023/10/01 03:35:23;;;;;;;10.15;6.05;;;;;;;12.19;100.00;98566.66;1224376;75;2911436;-78
2023/10/01 03:41:00;;;;;;;9.20;5.50;;;;;;;12.32;100.00;98566.47;1224429;75;2916930;-76
2023/10/01 03:43:36;;;;;;;;;;;;;;;12.36;100.00;98569.78;1221898;75;3043267;-74
2023/10/01 03:46:25;;;;;;;8.55;4.75;;;;;;;12.30;100.00;98566.94;1225240;75;2918993;-77
2023/10/01 03:49:00;;;;;;;6.45;4.00;;;;;;;12.31;100.00;98571.22;1223490;75;2924251;-77
2023/10/01 03:54:20;;;;;;;12.50;6.95;;;;;;;11.99;100.00;98569.97;1221693;75;2995483;-75
2023/10/01 03:57:00;;;;;;;8.40;5.40;;;;;;;12.20;100.00;98568.22;1222935;75;2950157;-78
2023/10/01 03:59:33;;;;;;;9.10;5.50;;;;;;;11.98;100.00;98567.66;1205973;75;3810228;-75
2023/10/01 04:02:27;;;;;;;9.50;5.05;;;;;;;11.86;100.00;98580.34;1219053;75;3059477;-74
2023/10/01 04:05:04;;;;;;;10.85;6.10;;;;;;;12.03;100.00;98583.53;1225550;75;2919305;-76
2023/10/01 04:07:43;;;;;;;11.60;6.05;;;;;;;11.99;100.00;98583.69;1225490;75;2916739;-73
2023/10/01 04:10:21;;;;;;;9.00;5.20;;;;;;;12.01;100.00;98580.47;1223441;75;2964603;-73
2023/10/01 04:12:54;;;;;;;10.70;6.50;;;;;;;12.00;100.00;98587.19;1213419;75;3831060;-72
2023/10/01 04:15:30;;;;;;;9.55;5.65;;;;;;;11.90;100.00;98580.94;1225542;75;2913028;-75
2023/10/01 04:23:50;;;;;;;13.55;7.45;;;;;;;11.88;100.00;98578.69;1220527;75;3085383;-74
2023/10/01 04:26:23;;;;;;;8.85;5.25;;;;;;;12.01;100.00;98577.72;1219218;75;3022532;-74
2023/10/01 04:28:59;;;;;;;9.80;5.35;;;;;;;12.01;100.00;98583.97;1224114;75;2903942;-76
2023/10/01 04:31:52;;;;;;;8.30;4.75;;;;;;;11.95;100.00;98583.06;1225223;75;2917999;-76
2023/10/01 04:34:29;;;;;;;8.50;4.85;;;;;;;12.01;100.00;98594.97;1225130;75;2925942;-74
2023/10/01 04:37:01;;;;;;;6.30;3.80;;;;;;;11.93;100.00;98588.28;1223266;75;2926811;-74
2023/10/01 04:39:37;;;;;;;7.75;4.55;;;;;;;11.87;100.00;98592.88;1223595;75;2936442;-75
2023/10/01 04:42:10;;;;;;;12.70;5.65;;;;;;;11.69;100.00;98599.88;1224385;75;2929116;-77
2023/10/01 04:44:43;;;;;;;11.80;6.50;;;;;;;11.73;100.00;98600.47;1222791;75;3031859;-74
2023/10/01 04:47:31;;;;;;;13.05;7.50;;;;;;;11.60;100.00;98599.16;1221990;75;2957585;-76
2023/10/01 04:50:06;;;;;;;11.65;7.15;;;;;;;11.87;100.00;98601.09;1224585;75;2922934;-79
2023/10/01 04:52:39;;;;;;;13.60;7.40;;;;;;;11.54;100.00;98596.25;1223420;75;2948627;-79
2023/10/01 04:55:14;;;;;;;12.05;6.70;;;;;;;11.67;100.00;98599.59;1222629;75;3029469;-77
2023/10/01 04:57:48;;;;;;;9.90;6.35;;;;;;;11.75;100.00;98604.75;1225137;75;2919234;-76
2023/10/01 05:00:22;;;;;;;8.70;5.45;;;;;;;11.82;100.00;98605.19;1224522;75;2925849;-79
2023/10/01 05:02:57;;;;;;;10.75;5.45;;;;;;;11.71;100.00;98602.16;1225053;83;2916960;-75
2023/10/01 05:05:32;;;;;;;11.90;7.00;;;;;;;11.77;100.00;98610.53;1222152;75;3030984;-75
2023/10/01 05:08:05;;;;;;;12.65;6.55;;;;;;;11.83;100.00;98617.66;1221145;75;3011801;-76
2023/10/01 05:10:51;;;;;;;9.15;5.30;;;;;;;11.88;100.00;98608.09;1225550;75;2918767;-75
2023/10/01 05:13:24;;;;;;;7.90;4.75;;;;;;;11.77;100.00;98605.81;1222231;75;2987551;-73
2023/10/01 05:15:58;;;;;;;8.50;4.85;;;;;;;11.86;100.00;98611.28;1222043;75;3065431;-76
2023/10/01 05:18:33;;;;;;;6.55;4.15;;;;;;;11.92;100.00;98612.19;1222904;75;2968144;-76
2023/10/01 05:21:12;;;;;;;7.45;3.95;;;;;;;11.93;100.00;98619.22;1222629;75;2955592;-72
2023/10/01 05:23:47;;;;;;;6.70;3.90;;;;;;;11.93;100.00;98615.72;1224863;75;2917171;-75
2023/10/01 05:26:21;;;;;;;6.55;4.00;;;;;;;12.00;100.00;98620.09;1225151;75;2919255;-78
2023/10/01 05:28:54;;;;;;;7.80;4.10;;;;;;;12.08;100.00;98624.06;1224826;75;2914013;-74
2023/10/01 05:31:27;;;;;;;6.20;3.60;;;;;;;12.09;100.00;98625.56;1219343;75;3041112;-74
2023/10/01 05:34:02;;;;;;;6.55;4.20;;;;;;;12.14;100.00;98636.69;1224543;75;2920005;-72
2023/10/01 05:36:37;;;;;;;7.85;5.00;;;;;;;12.25;100.00;98644.44;1224800;75;2925907;-74
2023/10/01 05:39:12;;;;;;;8.25;4.55;;;;;;;12.25;100.00;98647.19;1222255;75;2965605;-78
2023/10/01 05:41:45;;;;;;;8.00;5.50;;;;;;;12.25;100.00;98651.91;1223854;75;2916812;-77
2023/10/01 05:44:18;;;;;;;13.10;7.75;;;;;;;12.21;100.00;98660.31;1223995;75;2924864;-76
2023/10/01 05:46:51;;;;;;;14.70;8.05;;;;;;;12.47;100.00;98654.44;1209841;75;4053135;-72
2023/10/01 05:49:24;;;;;;;9.80;6.65;;;;;;;12.53;100.00;98663.53;1219232;75;3073429;-74
2023/10/01 05:52:01;;;;;;;17.50;10.45;;;;;;;12.33;100.00;98662.09;1223776;75;2916997;-76
2023/10/01 05:54:34;;;;;;;17.25;9.45;;;;;;;12.56;100.00;98651.66;1223687;75;2924163;-78
2023/10/01 05:57:07;;;;;;;13.05;7.95;;;;;;;12.92;100.00;98652.69;1219855;75;3040788;-77
2023/10/01 05:59:39;;;;;;;11.15;6.65;;;;;;;13.07;100.00;98645.25;1209341;75;3915123;-75
2023/10/01 06:02:41;;;;;;;9.30;5.90;;;;;;;13.15;100.00;98651.91;1222627;75;2938284;-75
2023/10/01 06:05:22;;;;;;;9.35;5.85;;;;;;;13.13;100.00;98662.63;1225653;75;2937376;-76
2023/10/01 06:07:57;;;;;;;15.45;8.35;;;;;;;13.10;100.00;98665.53;1223330;75;2921353;-75
2023/10/01 06:10:35;;;;;;;14.30;8.10;;;;;;;13.57;100.00;98659.28;1221773;75;3089040;-76
2023/10/01 06:13:09;;;;;;;13.50;8.20;;;;;;;13.58;100.00;98660.78;1220898;75;3050236;-75
2023/10/01 06:15:41;;;;;;;13.70;8.10;;;;;;;14.85;100.00;98656.38;1223191;75;2927567;-77
2023/10/01 06:18:14;;;;;;;13.40;7.55;;;;;;;14.58;100.00;98662.25;1224523;75;2925047;-74
2023/10/01 06:20:47;;;;;;;12.15;6.80;;;;;;;15.29;100.00;98663.69;1223779;75;2935471;-78
2023/10/01 06:23:23;;;;;;;10.25;6.25;;;;;;;15.84;100.00;98664.06;1223150;75;2927475;-76
2023/10/01 06:25:58;;;;;;;7.20;4.80;;;;;;;15.72;100.00;98661.19;1222110;75;2978115;-76
2023/10/01 06:28:31;;;;;;;7.65;4.75;;;;;;;16.29;100.00;98664.50;1223100;75;2922885;-73
2023/10/01 06:31:03;;;;;;;7.20;4.40;;;;;;;16.96;100.00;98662.19;1209352;75;3965288;-73
2023/10/01 06:33:38;;;;;;;7.05;3.95;;;;;;;18.78;89.75;98667.59;1223712;75;2921165;-76
2023/10/01 06:36:21;;;;;;;11.55;6.55;;;;;;;19.36;85.39;98681.56;1224550;75;2935655;-72
2023/10/01 06:38:59;;;;;;;11.30;6.40;;;;;;;19.93;78.06;98670.94;1223887;83;2923959;-73
2023/10/01 06:41:32;;;;;;;11.90;7.10;;;;;;;18.81;87.73;98669.38;1225197;75;2920992;-78
2023/10/01 06:44:10;;;;;;;10.45;5.90;;;;;;;19.91;80.53;98662.34;1224105;75;2924966;-76
2023/10/01 06:46:44;;;;;;;11.20;6.15;;;;;;;20.38;78.56;98655.94;1209035;75;3938670;-75
2023/10/01 06:49:18;;;;;;;9.45;6.10;;;;;;;19.98;79.37;98661.78;1224830;75;2921735;-73
2023/10/01 06:51:51;;;;;;;11.40;5.60;;;;;;;20.41;78.27;98666.78;1224229;75;2920453;-76
2023/10/01 06:54:27;;;;;;;10.50;5.30;;;;;;;21.40;72.69;98655.66;1200293;75;4786132;-74
2023/10/01 06:57:16;;;;;;;11.05;6.00;;;;;;;23.43;65.16;98655.88;1222811;75;2949584;-77
2023/10/01 06:59:49;;;;;;;13.05;6.90;;;;;;;22.48;66.40;98656.34;1221776;75;3027879;-78
2023/10/01 07:02:22;;;;;;;12.40;6.95;;;;;;;21.91;68.98;98650.16;1222897;75;2928054;-75
2023/10/01 07:04:56;;;;;;;13.60;6.90;;;;;;;21.14;72.28;98647.84;1223936;75;2913202;-75
2023/10/01 07:07:29;;;;;;;9.65;5.15;;;;;;;20.57;70.84;98656.06;1222555;75;2951190;-75
2023/10/01 07:10:10;;;;;;;12.15;5.85;;;;;;;19.92;75.47;98655.53;1224225;75;2930739;-76
2023/10/01 07:12:53;;;;;;;12.40;4.85;;;;;;;19.94;73.37;98655.78;1222881;75;2933064;-77
2023/10/01 07:15:26;;;;;;;9.35;4.80;;;;;;;20.21;73.20;98662.41;1222524;75;2974491;-75
2023/10/01 07:17:59;;;;;;;9.15;4.60;;;;;;;19.89;74.98;98658.56;1224225;75;2935317;-76
2023/10/01 07:20:31;;;;;;;8.55;4.65;;;;;;;20.36;72.82;98666.84;1222489;75;2972411;-76
2023/10/01 07:23:04;;;;;;;8.30;4.35;;;;;;;20.38;72.34;98661.50;1224894;75;2921860;-75
2023/10/01 07:25:43;;;;;;;11.10;5.45;;;;;;;19.12;78.64;98673.06;1225454;75;2914622;-77
2023/10/01 07:28:18;;;;;;;8.95;4.90;;;;;;;19.74;77.96;98664.47;1225118;75;2917371;-75
2023/10/01 07:30:56;;;;;;;12.50;5.70;;;;;;;19.58;77.62;98664.03;1224066;75;2935267;-74
2023/10/01 07:33:28;;;;;;;7.50;3.90;;;;;;;20.27;75.01;98662.34;1224519;75;2920700;-74
2023/10/01 07:36:04;;;;;;;7.25;3.70;;;;;;;20.51;73.19;98660.88;1224554;75;2932172;-72
2023/10/01 07:38:46;;;;;;;8.05;4.40;;;;;;;19.19;77.38;98675.31;1221950;75;3024810;-72
2023/10/01 07:41:24;;;;;;;8.70;4.15;;;;;;;19.65;76.86;98678.63;1218956;75;3112711;-76
2023/10/01 07:44:07;;;;;;;17.60;11.50;;;;;;;19.31;81.02;98676.78;1220168;75;3104443;-76
2023/10/01 07:46:40;;;;;;;20.50;13.90;;;;;;;19.64;78.18;98677.91;1224935;75;2933804;-74
2023/10/01 07:49:13;;;;;;;13.55;8.45;;;;;;;20.12;78.30;98673.84;1221588;75;3084160;-77
2023/10/01 07:51:48;;;;;;;12.80;6.35;;;;;;;19.21;78.79;98681.09;1222607;75;2968691;-74
2023/10/01 07:54:22;;;;;;;11.05;6.00;;;;;;;20.00;76.43;98677.97;1225708;75;2930349;-76
2023/10/01 07:56:57;;;;;;;10.00;5.55;;;;;;;19.76;78.10;98682.16;1221777;75;3018257;-75
2023/10/01 07:59:33;;;;;;;9.65;4.80;;;;;;;21.10;73.20;98678.78;1220746;75;3106475;-76
2023/10/01 08:02:19;;;;;;;8.30;4.40;;;;;;;24.50;61.37;98683.47;1211513;75;3942277;-73
2023/10/01 08:04:57;;;;;;;10.10;4.60;;;;;;;26.10;54.70;98688.47;1224535;75;2926389;-76
2023/10/01 08:07:42;;;;;;;10.20;5.10;;;;;;;27.30;52.05;98683.94;1223799;75;2926917;-75
2023/10/01 08:10:21;;;;;;;10.85;4.40;;;;;;;28.39;49.49;98680.00;1224913;75;2925909;-77
2023/10/01 08:15:57;;;;;;;11.50;5.45;;;;;;;25.83;52.80;98687.97;1222109;75;3053092;-74
2023/10/01 08:18:34;;;;;;;9.50;4.60;;;;;;;28.17;49.02;98693.66;1218008;75;3058546;-75
2023/10/01 08:21:15;;;;;;;10.10;5.50;;;;;;;28.25;48.38;98688.72;1225586;75;2917910;-75
2023/10/01 08:23:48;;;;;;;11.60;5.45;;;;;;;27.20;49.20;98683.78;1226188;75;2921420;-76
2023/10/01 08:29:09;;;;;;;11.70;5.70;;;;;;;28.44;47.01;98687.47;1219805;75;3078936;-74
2023/10/01 08:34:27;;;;;;;8.95;4.90;;;;;;;24.61;54.96;98683.97;1224624;75;2924546;-76
2023/10/01 08:37:06;;;;;;;12.35;6.60;;;;;;;23.92;57.43;98683.28;1224535;75;2923159;-73
2023/10/01 08:39:47;;;;;;;11.10;5.85;;;;;;;23.10;59.91;98685.25;1223522;75;2930119;-75
2023/10/01 08:42:17;;;;;;;12.25;5.90;;;;;;;22.49;62.24;98683.00;1220770;75;2961461;-75
2023/10/01 08:45:02;;;;;;;11.90;6.70;;;;;;;23.02;61.21;98679.56;1222792;75;2921502;-77
2023/10/01 08:47:37;;;;;;;11.80;6.10;;;;;;;22.66;63.64;98676.38;1224537;75;2919206;-77
2023/10/01 08:50:36;;;;;;;10.30;5.65;;;;;;;22.89;63.02;98665.53;1224345;75;2919734;-74
2023/10/01 08:53:12;;;;;;;10.55;5.40;;;;;;;23.49;59.92;98670.47;1220739;75;3067444;-73
2023/10/01 08:58:48;;;;;;;12.20;6.90;;;;;;;22.03;65.47;98673.81;1225189;75;2922647;-76
2023/10/01 09:01:23;;;;;;;10.45;5.95;;;;;;;21.59;69.12;98667.56;1220798;75;3092318;-74
2023/10/01 09:03:56;;;;;;;12.05;5.80;;;;;;;21.61;69.72;98656.66;1223658;75;2964487;-76
2023/10/01 09:06:58;;;;;;;11.35;5.35;;;;;;;23.49;64.22;98661.34;1225273;75;2922319;-75
2023/10/01 09:09:51;;;;;;;10.35;6.10;;;;;;;22.95;63.66;98652.97;1221765;75;3050046;-75
2023/10/01 09:12:24;;;;;;;10.50;6.30;;;;;;;22.44;64.47;98660.75;1222206;75;2978476;-75
2023/10/01 09:14:57;;;;;;;12.40;6.35;;;;;;;22.39;67.78;98656.03;1225311;75;2922447;-73
2023/10/01 09:17:56;;;;;;;12.85;6.50;;;;;;;22.76;65.42;98658.66;1221861;75;3048718;-77
2023/10/01 09:20:42;;;;;;;10.95;5.70;;;;;;;22.49;66.82;98657.88;1225270;75;2949423;-76
2023/10/01 09:23:15;;;;;;;9.75;4.95;;;;;;;23.31;63.96;98652.56;1221539;75;3042379;-74
2023/10/01 09:26:00;;;;;;;11.35;6.20;;;;;;;23.02;65.11;98645.25;1212445;75;3804249;-74
2023/10/01 09:28:38;;;;;;;11.40;5.90;;;;;;;24.57;60.55;98640.81;1208829;75;4017240;-77
2023/10/01 09:31:26;;;;;;;;;;;;;;;23.00;63.89;98657.00;1222213;75;3084603;-75
2023/10/01 09:34:31;;;;;;;13.20;6.80;;;;;;;24.18;61.22;98648.13;1224792;75;2920563;-76
2023/10/01 09:37:07;;;;;;;13.75;7.05;;;;;;;24.85;60.38;98646.41;1224521;75;2924516;-75
2023/10/01 09:39:41;;;;;;;12.25;6.70;;;;;;;22.70;65.45;98654.47;1221063;75;3108659;-77
2023/10/01 09:42:28;;;;;;;11.25;6.30;;;;;;;24.46;60.83;98644.63;1222775;75;2960569;-76
2023/10/01 09:45:09;;;;;;;12.70;5.85;;;;;;;24.52;61.12;98655.69;1224797;75;2919713;-75
2023/10/01 09:47:44;;;;;;;8.05;4.90;;;;;;;24.94;59.05;98645.13;1223601;75;2923997;-77
2023/10/01 09:50:20;;;;;;;8.65;5.15;;;;;;;25.71;56.71;98637.84;1219871;75;2989282;-76
2023/10/01 09:52:59;;;;;;;9.40;5.65;;;;;;;26.52;56.17;98634.75;1224341;75;2927917;-75
2023/10/01 09:55:34;;;;;;;9.40;5.30;;;;;;;26.03;57.40;98627.47;1224402;75;2919051;-75
2023/10/01 09:58:10;;;;;;;10.20;6.10;;;;;;;25.32;57.35;98627.81;1223036;75;2920424;-77
2023/10/01 10:00:42;;;;;;;11.10;5.40;;;;;;;24.15;60.76;98626.81;1211940;75;3824498;-76
2023/10/01 10:03:18;;;;;;;15.00;7.20;;;;;;;23.49;61.75;98636.19;1224308;75;2918857;-78
2023/10/01 10:05:56;;;;;;;12.85;7.80;;;;;;;23.70;60.28;98631.41;1220976;75;3043265;-76
2023/10/01 10:08:34;;;;;;;;;;;;;;;24.64;59.00;98624.06;1222612;75;2972314;-81
2023/10/01 10:11:13;;;;;;;9.75;5.50;;;;;;;26.31;56.18;98626.53;1224251;75;2931764;-74
2023/10/01 10:13:50;;;;;;;10.55;6.35;;;;;;;25.53;56.61;98621.34;1224072;75;2917441;-77
2023/10/01 10:16:35;;;;;;;12.15;6.75;;;;;;;25.38;55.95;98625.59;1197789;75;3935432;-78
2023/10/01 10:19:20;;;;;;;9.70;6.10;;;;;;;25.96;55.37;98620.53;1221065;75;3012784;-78
2023/10/01 10:22:20;;;;;;;14.45;9.15;;;;;;;25.85;54.78;98615.97;1222834;75;2964119;-75
2023/10/01 10:25:13;;;;;;;12.95;7.55;;;;;;;24.75;58.19;98606.22;1223949;75;2921928;-78
2023/10/01 10:27:52;;;;;;;11.75;6.95;;;;;;;25.26;56.51;98602.75;1218265;75;3062963;-73
2023/10/01 10:30:27;;;;;;;12.05;6.50;;;;;;;27.37;52.99;98607.22;1224776;75;2913835;-77
2023/10/01 10:33:30;;;;;;;10.95;7.45;;;;;;;27.68;52.94;98602.19;1217282;75;3100220;-74
2023/10/01 10:36:54;;;;;;;12.95;7.15;;;;;;;24.70;57.45;98611.94;1221705;75;2979928;-78
2023/10/01 10:40:26;;;;;;;10.65;6.55;;;;;;;26.30;55.44;98608.19;1225184;75;2923161;-77
2023/10/01 10:43:19;;;;;;;13.30;6.85;;;;;;;25.80;56.01;98597.28;1224193;75;2956771;-76
2023/10/01 10:46:09;;;;;;;16.05;10.80;;;;;;;26.10;54.31;98593.78;1218856;75;3065228;-74
2023/10/01 10:49:02;;;;;;;14.65;7.25;;;;;;;24.84;58.47;98597.28;1220836;75;2999152;-76
2023/10/01 10:51:58;;;;;;;15.45;7.25;;;;;;;24.56;57.71;98594.53;1220373;75;3059920;-76
2023/10/01 10:54:36;;;;;;;11.35;6.25;;;;;;;25.79;56.06;98586.63;1223581;75;2925253;-75
2023/10/01 10:57:10;;;;;;;13.40;7.60;;;;;;;24.87;57.47;98589.84;1224806;75;2917037;-73
2023/10/01 10:59:52;;;;;;;11.40;6.35;;;;;;;25.66;55.69;98579.88;1207768;75;4089100;-75
2023/10/01 11:02:25;;;;;;;11.90;7.15;;;;;;;25.19;56.47;98588.72;1224049;75;2924313;-76
2023/10/01 11:04:57;;;;;;;12.20;5.80;;;;;;;26.66;55.23;98577.09;1219041;75;3048419;-75
2023/10/01 11:07:35;;;;;;;15.15;6.90;;;;;;;26.10;54.72;98579.75;1220632;75;3026978;-75
2023/10/01 11:10:09;;;;;;;16.50;8.50;;;;;;;25.01;57.24;98573.66;1219322;75;3116210;-76
2023/10/01 11:12:54;;;;;;;10.90;6.80;;;;;;;25.18;57.38;98576.00;1210917;75;3957297;-72
2023/10/01 11:15:39;;;;;;;13.25;7.40;;;;;;;25.56;56.85;98572.56;1222528;75;2938082;-75
2023/10/01 11:18:12;;;;;;;14.90;7.80;;;;;;;24.88;57.08;98580.88;1219712;75;3003267;-72
2023/10/01 12:14:55;;;;;;;15.25;8.15;;;;;;;23.43;63.61;98524.53;1252026;75;2810123;-72
2023/10/01 12:17:30;;;;;;;13.65;7.45;;;;;;;23.77;62.83;98509.78;1226392;75;2917810;-74
2023/10/01 12:20:21;;;;;;;13.30;7.60;;;;;;;24.19;61.71;98513.25;1226063;75;2922373;-72
2023/10/01 12:23:10;;;;;;;14.15;8.05;;;;;;;24.22;60.14;98506.56;1225543;75;2933976;-73
2023/10/01 12:25:52;;;;;;;14.55;7.65;;;;;;;24.01;59.90;98503.06;1225548;75;2922288;-72
2023/10/01 12:28:27;;;;;;;17.60;8.35;;;;;;;24.07;59.35;98494.53;1225340;75;2929734;-71
2023/10/01 12:31:08;;;;;;;11.40;6.50;;;;;;;25.27;56.81;98499.78;1226360;75;2922589;-74
2023/10/01 12:33:43;;;;;;;17.40;7.45;;;;;;;23.54;60.23;98495.56;1225703;75;2920885;-73
2023/10/01 12:39:16;;;;;;;14.35;7.65;;;;;;;24.79;57.50;98491.03;1225331;75;2929696;-73
2023/10/01 12:41:47;;;;;;;14.45;7.80;;;;;;;25.49;56.66;98489.94;1225891;75;2933010;-71
2023/10/01 12:44:28;;;;;;;13.60;8.60;;;;;;;26.02;54.53;98494.06;1225554;75;2935101;-72
2023/10/01 12:47:02;;;;;;;14.50;7.90;;;;;;;25.33;55.07;98489.19;1226114;75;2919592;-71
2023/10/01 12:49:37;;;;;;;11.60;7.35;;;;;;;25.87;53.01;98484.34;1226225;75;2912071;-71
2023/10/01 12:52:08;;;;;;;11.55;6.50;;;;;;;26.80;51.98;98481.38;1226038;75;2924406;-73
2023/10/01 12:54:41;;;;;;;12.80;6.75;;;;;;;26.64;52.31;98486.31;1225934;75;2865521;-71
2023/10/01 12:57:12;;;;;;;14.95;7.50;;;;;;;26.12;52.65;98478.16;1225169;75;2922955;-72
2023/10/01 12:59:49;;;;;;;11.00;6.40;;;;;;;26.16;52.98;98483.41;1226016;75;2937209;-73
2023/10/01 13:02:22;;;;;;;12.45;7.40;;;;;;;26.63;51.08;98470.78;1226598;75;2923602;-71
2023/10/01 13:05:16;;;;;;;12.60;6.65;;;;;;;26.03;51.80;98465.47;1223186;75;2995469;-72
2023/10/01 13:07:47;;;;;;;13.40;7.90;;;;;;;26.66;50.84;98461.22;1225806;75;2936341;-71
2023/10/01 13:10:33;;;;;;;12.60;6.70;;;;;;;27.60;49.61;98458.78;1226140;75;2932044;-70
2023/10/01 13:13:08;;;;;;;12.55;7.10;;;;;;;26.78;48.66;98457.41;1224910;75;2923503;-74
2023/10/01 13:15:41;;;;;;;13.55;7.20;;;;;;;26.95;48.86;98453.19;1225269;75;2921848;-73
2023/10/01 13:18:18;;;;;;;14.30;7.70;;;;;;;27.13;48.07;98451.22;1225660;75;2917187;-72
2023/10/01 13:20:59;;;;;;;21.25;13.35;;;;;;;27.37;47.30;98449.75;1225501;75;2930309;-71
2023/10/01 13:23:32;;;;;;;15.05;9.65;;;;;;;27.18;49.05;98445.38;1226301;75;2919607;-72
2023/10/01 13:26:15;;;;;;;16.90;10.95;;;;;;;27.72;48.10;98435.81;1222017;75;3040170;-71